Time,TemperatureF,DewpointF,PressureIn,WindDirection,WindDirectionDegrees,WindSpeedMPH,WindSpeedGustMPH,Humidity,HourlyPrecipIn,Conditions,Clouds,dailyrainin,SoftwareType,DateUTC
2013-03-25 00:08:00,37.2,36.7,29.22,West,270,7.3,-999.0,98,-99.99,,,0.01,Acu-Link.com,2013-03-25 04:08:00,
2013-03-25 00:23:00,36.7,35.4,29.23,WSW,247,7.3,-999.0,95,-99.99,,,0.01,Acu-Link.com,2013-03-25 04:23:00,
2013-03-25 00:38:00,36.3,35.3,29.23,West,270,5.3,-999.0,96,-99.99,,,0.01,Acu-Link.com,2013-03-25 04:38:00,
2013-03-25 00:53:00,36.0,34.2,29.24,WSW,247,12.5,-999.0,93,-99.99,,,0.01,Acu-Link.com,2013-03-25 04:53:00,
2013-03-25 01:08:00,35.4,33.8,29.25,West,270,9.9,-999.0,94,-99.99,,,0.01,Acu-Link.com,2013-03-25 05:08:00,
2013-03-25 01:24:00,35.1,33.6,29.25,West,270,5.3,-999.0,94,-99.99,,,0.01,Acu-Link.com,2013-03-25 05:24:00,
2013-03-25 01:39:00,34.5,33.0,29.25,West,270,9.9,-999.0,94,-99.99,,,0.01,Acu-Link.com,2013-03-25 05:39:00,
2013-03-25 01:54:00,32.9,32.7,29.26,South,180,14.0,-999.0,99,-99.99,,,0.01,Acu-Link.com,2013-03-25 05:54:00,
2013-03-25 02:09:00,32.9,32.1,29.26,SW,225,6.8,-999.0,97,-99.99,,,0.01,Acu-Link.com,2013-03-25 06:09:00,
2013-03-25 02:24:00,32.7,31.7,29.27,SSW,202,6.3,-999.0,96,-99.99,,,0.01,Acu-Link.com,2013-03-25 06:24:00,
2013-03-25 02:40:00,32.5,31.2,29.27,West,270,8.3,-999.0,95,-99.99,,,0.02,Acu-Link.com,2013-03-25 06:40:00,
2013-03-25 02:55:00,32.5,31.0,29.27,SW,225,5.3,-999.0,94,-99.99,,,0.02,Acu-Link.com,2013-03-25 06:55:00,
2013-03-25 03:10:00,32.4,31.4,29.27,SSW,202,4.7,-999.0,96,-99.99,,,0.02,Acu-Link.com,2013-03-25 07:10:00,
2013-03-25 03:25:00,32.4,31.1,29.27,SW,225,9.9,-999.0,95,-99.99,,,0.02,Acu-Link.com,2013-03-25 07:25:00,
2013-03-25 03:40:00,32.2,31.2,29.27,SW,225,7.3,-999.0,96,-99.99,,,0.02,Acu-Link.com,2013-03-25 07:40:00,
2013-03-25 03:55:00,32.0,31.2,29.27,WSW,247,5.3,-999.0,97,-99.99,,,0.02,Acu-Link.com,2013-03-25 07:55:00,
2013-03-25 04:41:00,31.5,31.3,29.26,SW,225,3.2,-999.0,99,-99.99,,,0.02,Acu-Link.com,2013-03-25 08:41:00,
2013-03-25 04:56:00,31.3,31.1,29.26,West,270,8.3,-999.0,99,-99.99,,,0.02,Acu-Link.com,2013-03-25 08:56:00,
2013-03-25 05:11:00,31.5,31.3,29.27,SW,225,7.3,-999.0,99,-99.99,,,0.02,Acu-Link.com,2013-03-25 09:11:00,
2013-03-25 05:42:00,31.8,30.5,29.28,WSW,247,5.8,-999.0,95,-99.99,,,0.02,Acu-Link.com,2013-03-25 09:42:00,
2013-03-25 05:57:00,31.6,30.1,29.29,SSW,202,14.5,-999.0,94,-99.99,,,0.02,Acu-Link.com,2013-03-25 09:57:00,
2013-03-25 06:12:00,31.5,30.0,29.29,West,270,10.4,-999.0,94,-99.99,,,0.02,Acu-Link.com,2013-03-25 10:12:00,
2013-03-25 06:27:00,31.3,29.8,29.29,NNW,337,6.3,-999.0,94,-99.99,,,0.02,Acu-Link.com,2013-03-25 10:27:00,
2013-03-25 06:57:00,30.6,30.4,29.30,West,270,8.9,-999.0,99,-99.99,,,0.02,Acu-Link.com,2013-03-25 10:57:00,
2013-03-25 07:12:00,30.4,29.9,29.32,WNW,292,6.3,-999.0,98,-99.99,,,0.02,Acu-Link.com,2013-03-25 11:12:00,
2013-03-25 07:28:00,30.2,30.0,29.32,WNW,292,4.7,-999.0,99,-99.99,,,0.02,Acu-Link.com,2013-03-25 11:28:00,
2013-03-25 07:43:00,30.0,29.5,29.32,WNW,292,9.4,-999.0,98,-99.99,,,0.02,Acu-Link.com,2013-03-25 11:43:00,
2013-03-25 07:58:00,29.7,29.5,29.33,WNW,292,7.3,-999.0,99,-99.99,,,0.02,Acu-Link.com,2013-03-25 11:58:00,
2013-03-25 08:13:00,29.8,29.6,29.33,West,270,7.3,-999.0,99,-99.99,,,0.02,Acu-Link.com,2013-03-25 12:13:00,
2013-03-25 08:28:00,30.2,29.5,29.35,West,270,6.8,-999.0,97,-99.99,,,0.02,Acu-Link.com,2013-03-25 12:28:00,
2013-03-25 08:43:00,30.4,29.4,29.35,SSW,202,8.9,-999.0,96,-99.99,,,0.02,Acu-Link.com,2013-03-25 12:43:00,
2013-03-25 08:58:00,30.4,29.4,29.36,West,270,7.8,-999.0,96,-99.99,,,0.02,Acu-Link.com,2013-03-25 12:58:00,
2013-03-25 09:13:00,30.4,29.4,29.37,West,270,5.8,-999.0,96,-99.99,,,0.02,Acu-Link.com,2013-03-25 13:13:00,
2013-03-25 09:28:00,30.9,29.6,29.37,West,270,7.3,-999.0,95,-99.99,,,0.02,Acu-Link.com,2013-03-25 13:28:00,
2013-03-25 09:43:00,31.6,29.3,29.38,SW,225,9.9,-999.0,91,-99.99,,,0.02,Acu-Link.com,2013-03-25 13:43:00,
2013-03-25 09:58:00,32.0,29.7,29.38,WSW,247,7.8,-999.0,91,-99.99,,,0.02,Acu-Link.com,2013-03-25 13:58:00,
2013-03-25 10:13:00,31.6,29.0,29.39,West,270,3.7,-999.0,90,-99.99,,,0.02,Acu-Link.com,2013-03-25 14:13:00,
2013-03-25 10:28:00,31.5,28.4,29.40,West,270,8.9,-999.0,88,-99.99,,,0.02,Acu-Link.com,2013-03-25 14:28:00,
2013-03-25 10:44:00,31.5,28.6,29.40,WNW,292,10.9,-999.0,89,-99.99,,,0.02,Acu-Link.com,2013-03-25 14:44:00,
2013-03-25 10:59:00,32.0,29.7,29.41,SW,225,6.3,-999.0,91,-99.99,,,0.02,Acu-Link.com,2013-03-25 14:59:00,
2013-03-25 11:14:00,32.2,29.9,29.41,NNW,337,6.8,-999.0,91,-99.99,,,0.02,Acu-Link.com,2013-03-25 15:14:00,
2013-03-25 11:29:00,32.9,29.5,29.42,West,270,8.3,-999.0,87,-99.99,,,0.02,Acu-Link.com,2013-03-25 15:29:00,
2013-03-25 11:45:00,32.4,29.3,29.43,WSW,247,10.9,-999.0,88,-99.99,,,0.02,Acu-Link.com,2013-03-25 15:45:00,
2013-03-25 12:00:00,32.0,29.9,29.44,WSW,247,7.3,-999.0,92,-99.99,,,0.02,Acu-Link.com,2013-03-25 16:00:00,
2013-03-25 12:15:00,31.8,30.5,29.44,West,270,8.3,-999.0,95,-99.99,,,0.03,Acu-Link.com,2013-03-25 16:15:00,
2013-03-25 12:45:00,32.4,30.6,29.46,West,270,9.4,-999.0,93,-99.99,,,0.04,Acu-Link.com,2013-03-25 16:45:00,
2013-03-25 13:00:00,32.7,30.9,29.46,West,270,6.3,-999.0,93,-99.99,,,0.04,Acu-Link.com,2013-03-25 17:00:00,
2013-03-25 13:15:00,32.7,30.6,29.46,SW,225,7.3,-999.0,92,-99.99,,,0.04,Acu-Link.com,2013-03-25 17:15:00,
2013-03-25 13:30:00,32.9,30.6,29.47,SW,225,9.4,-999.0,91,-99.99,,,0.04,Acu-Link.com,2013-03-25 17:30:00,
2013-03-25 13:45:00,32.4,30.9,29.47,WNW,292,8.9,-999.0,94,-99.99,,,0.04,Acu-Link.com,2013-03-25 17:45:00,
2013-03-25 14:01:00,32.9,31.4,29.48,NW,315,9.9,-999.0,94,-99.99,,,0.05,Acu-Link.com,2013-03-25 18:01:00,
2013-03-25 14:16:00,32.9,30.6,29.48,SW,225,13.5,-999.0,91,-99.99,,,0.05,Acu-Link.com,2013-03-25 18:16:00,
2013-03-25 14:31:00,33.6,31.0,29.48,WNW,292,9.4,-999.0,90,-99.99,,,0.05,Acu-Link.com,2013-03-25 18:31:00,
2013-03-25 14:46:00,32.9,31.4,29.49,SW,225,6.3,-999.0,94,-99.99,,,0.05,Acu-Link.com,2013-03-25 18:46:00,
2013-03-25 15:02:00,34.0,31.7,29.49,West,270,7.8,-999.0,91,-99.99,,,0.05,Acu-Link.com,2013-03-25 19:02:00,
2013-03-25 15:17:00,33.4,31.1,29.50,WNW,292,4.7,-999.0,91,-99.99,,,0.05,Acu-Link.com,2013-03-25 19:17:00,
2013-03-25 15:32:00,34.2,31.6,29.51,NW,315,6.3,-999.0,90,-99.99,,,0.05,Acu-Link.com,2013-03-25 19:32:00,
2013-03-25 15:47:00,33.6,31.0,29.52,West,270,5.3,-999.0,90,-99.99,,,0.05,Acu-Link.com,2013-03-25 19:47:00,
2013-03-25 16:02:00,33.8,31.2,29.52,SW,225,7.3,-999.0,90,-99.99,,,0.05,Acu-Link.com,2013-03-25 20:02:00,
2013-03-25 16:17:00,33.1,32.1,29.53,NW,315,6.3,-999.0,96,-99.99,,,0.05,Acu-Link.com,2013-03-25 20:17:00,
2013-03-25 16:32:00,33.4,31.3,29.53,SW,225,9.4,-999.0,92,-99.99,,,0.05,Acu-Link.com,2013-03-25 20:32:00,
2013-03-25 16:47:00,34.0,31.9,29.54,SW,225,11.9,-999.0,92,-99.99,,,0.06,Acu-Link.com,2013-03-25 20:47:00,
2013-03-25 17:03:00,34.9,32.3,29.55,West,270,15.0,-999.0,90,-99.99,,,0.06,Acu-Link.com,2013-03-25 21:03:00,
2013-03-25 17:18:00,34.9,32.0,29.55,West,270,10.9,-999.0,89,-99.99,,,0.06,Acu-Link.com,2013-03-25 21:18:00,
2013-03-25 17:33:00,34.2,31.0,29.56,West,270,9.9,-999.0,88,-99.99,,,0.06,Acu-Link.com,2013-03-25 21:33:00,
2013-03-25 17:48:00,34.2,31.0,29.57,NW,315,10.4,-999.0,88,-99.99,,,0.06,Acu-Link.com,2013-03-25 21:48:00,
2013-03-25 18:03:00,34.0,30.3,29.58,WSW,247,7.8,-999.0,86,-99.99,,,0.06,Acu-Link.com,2013-03-25 22:03:00,
2013-03-25 18:18:00,33.8,30.6,29.59,WSW,247,8.3,-999.0,88,-99.99,,,0.06,Acu-Link.com,2013-03-25 22:18:00,
2013-03-25 18:33:00,32.9,31.4,29.60,West,270,5.3,-999.0,94,-99.99,,,0.06,Acu-Link.com,2013-03-25 22:33:00,
2013-03-25 18:48:00,32.5,31.5,29.61,ESE,112,6.8,-999.0,96,-99.99,,,0.06,Acu-Link.com,2013-03-25 22:48:00,
2013-03-25 19:03:00,32.2,31.7,29.62,NW,315,5.3,-999.0,98,-99.99,,,0.06,Acu-Link.com,2013-03-25 23:03:00,
2013-03-25 19:19:00,32.2,31.7,29.63,WNW,292,9.9,-999.0,98,-99.99,,,0.06,Acu-Link.com,2013-03-25 23:19:00,
2013-03-25 19:34:00,32.0,31.5,29.64,WNW,292,5.8,-999.0,98,-99.99,,,0.06,Acu-Link.com,2013-03-25 23:34:00,
2013-03-25 19:49:00,31.8,31.3,29.65,West,270,11.4,-999.0,98,-99.99,,,0.06,Acu-Link.com,2013-03-25 23:49:00,
2013-03-25 20:04:00,31.8,31.3,29.65,West,270,6.3,-999.0,98,-99.99,,,0.06,Acu-Link.com,2013-03-26 00:04:00,
2013-03-25 20:19:00,31.8,31.3,29.66,WSW,247,6.8,-999.0,98,-99.99,,,0.06,Acu-Link.com,2013-03-26 00:19:00,
2013-03-25 20:35:00,31.6,30.8,29.66,WSW,247,3.2,-999.0,97,-99.99,,,0.06,Acu-Link.com,2013-03-26 00:35:00,
2013-03-25 20:50:00,31.6,31.1,29.67,WSW,247,4.7,-999.0,98,-99.99,,,0.06,Acu-Link.com,2013-03-26 00:50:00,
2013-03-25 21:05:00,31.5,31.0,29.68,WSW,247,4.7,-999.0,98,-99.99,,,0.06,Acu-Link.com,2013-03-26 01:05:00,
2013-03-25 21:51:00,31.5,31.3,29.70,SW,225,3.2,-999.0,99,-99.99,,,0.06,Acu-Link.com,2013-03-26 01:51:00,
2013-03-25 22:07:00,31.3,31.1,29.71,SSE,157,7.8,-999.0,99,-99.99,,,0.06,Acu-Link.com,2013-03-26 02:07:00,
2013-03-25 22:37:00,31.1,30.9,29.71,West,270,8.3,-999.0,99,-99.99,,,0.06,Acu-Link.com,2013-03-26 02:37:00,
2013-03-25 22:53:00,31.1,30.9,29.72,WNW,292,9.9,-999.0,99,-99.99,,,0.06,Acu-Link.com,2013-03-26 02:53:00,
2013-03-25 23:08:00,31.1,30.9,29.72,West,270,4.7,-999.0,99,-99.99,,,0.06,Acu-Link.com,2013-03-26 03:08:00,
2013-03-25 23:23:00,31.1,30.9,29.73,West,270,4.7,-999.0,99,-99.99,,,0.06,Acu-Link.com,2013-03-26 03:23:00,
2013-03-25 23:38:00,31.3,31.1,29.73,WSW,247,6.8,-999.0,99,-99.99,,,0.06,Acu-Link.com,2013-03-26 03:38:00,
2013-03-25 23:53:00,31.3,31.1,29.73,West,270,4.7,-999.0,99,-99.99,,,0.06,Acu-Link.com,2013-03-26 03:53:00,